sensor_id;sensor_type;location;lat;lon;timestamp;P1;durP1;ratioP1;P2;durP2;ratioP2
11685;SDS011;5899;51.282;6.094;2023-03-31T00:01:20;5.13;;;2.40;;
11685;SDS011;5899;51.282;6.094;2023-03-31T00:03:48;5.83;;;2.37;;
11685;SDS011;5899;51.282;6.094;2023-03-31T00:06:14;3.53;;;1.88;;
11685;SDS011;5899;51.282;6.094;2023-03-31T00:08:49;3.83;;;2.28;;
11685;SDS011;5899;51.282;6.094;2023-03-31T00:11:18;5.50;;;2.08;;
11685;SDS011;5899;51.282;6.094;2023-03-31T00:13:46;3.05;;;1.58;;
11685;SDS011;5899;51.282;6.094;2023-03-31T00:16:15;5.18;;;1.80;;
11685;SDS011;5899;51.282;6.094;2023-03-31T00:18:44;3.83;;;1.60;;
11685;SDS011;5899;51.282;6.094;2023-03-31T00:21:14;2.17;;;1.60;;
11685;SDS011;5899;51.282;6.094;2023-03-31T00:23:48;1.77;;;1.60;;
11685;SDS011;5899;51.282;6.094;2023-03-31T00:26:22;4.25;;;1.75;;
11685;SDS011;5899;51.282;6.094;2023-03-31T00:28:51;4.07;;;1.70;;
11685;SDS011;5899;51.282;6.094;2023-03-31T00:34:05;2.30;;;1.80;;
11685;SDS011;5899;51.282;6.094;2023-03-31T00:36:33;4.35;;;1.58;;
11685;SDS011;5899;51.282;6.094;2023-03-31T00:39:11;4.35;;;2.00;;
11685;SDS011;5899;51.282;6.094;2023-03-31T00:41:42;3.92;;;1.92;;
11685;SDS011;5899;51.282;6.094;2023-03-31T00:44:10;2.97;;;1.80;;
11685;SDS011;5899;51.282;6.094;2023-03-31T00:46:43;4.57;;;1.67;;
11685;SDS011;5899;51.282;6.094;2023-03-31T00:49:24;1.75;;;1.42;;
11685;SDS011;5899;51.282;6.094;2023-03-31T00:52:00;3.63;;;1.52;;
11685;SDS011;5899;51.282;6.094;2023-03-31T00:54:29;3.00;;;1.58;;
11685;SDS011;5899;51.282;6.094;2023-03-31T00:56:57;3.05;;;1.70;;
11685;SDS011;5899;51.282;6.094;2023-03-31T00:59:29;2.58;;;1.42;;
11685;SDS011;5899;51.282;6.094;2023-03-31T01:01:56;4.00;;;1.80;;
11685;SDS011;5899;51.282;6.094;2023-03-31T01:04:28;4.27;;;2.00;;
11685;SDS011;5899;51.282;6.094;2023-03-31T01:06:57;4.72;;;1.88;;
11685;SDS011;5899;51.282;6.094;2023-03-31T01:09:28;5.18;;;2.15;;
11685;SDS011;5899;51.282;6.094;2023-03-31T01:11:59;4.55;;;2.40;;
11685;SDS011;5899;51.282;6.094;2023-03-31T01:14:30;4.30;;;2.42;;
11685;SDS011;5899;51.282;6.094;2023-03-31T01:17:00;5.88;;;2.78;;
11685;SDS011;5899;51.282;6.094;2023-03-31T01:19:30;6.22;;;2.60;;
11685;SDS011;5899;51.282;6.094;2023-03-31T01:22:04;5.30;;;2.50;;
11685;SDS011;5899;51.282;6.094;2023-03-31T01:24:59;5.70;;;2.50;;
11685;SDS011;5899;51.282;6.094;2023-03-31T01:27:42;4.88;;;2.20;;
11685;SDS011;5899;51.282;6.094;2023-03-31T01:35:46;3.50;;;2.00;;
11685;SDS011;5899;51.282;6.094;2023-03-31T01:38:20;4.97;;;2.40;;
11685;SDS011;5899;51.282;6.094;2023-03-31T01:40:55;8.07;;;2.42;;
11685;SDS011;5899;51.282;6.094;2023-03-31T01:43:28;4.97;;;2.28;;
11685;SDS011;5899;51.282;6.094;2023-03-31T01:45:59;5.50;;;2.70;;
11685;SDS011;5899;51.282;6.094;2023-03-31T01:48:32;6.93;;;2.63;;
11685;SDS011;5899;51.282;6.094;2023-03-31T01:51:04;5.80;;;2.67;;
11685;SDS011;5899;51.282;6.094;2023-03-31T01:53:35;5.15;;;2.45;;
11685;SDS011;5899;51.282;6.094;2023-03-31T01:56:12;4.82;;;2.33;;
11685;SDS011;5899;51.282;6.094;2023-03-31T01:58:49;7.87;;;2.50;;
11685;SDS011;5899;51.282;6.094;2023-03-31T02:01:22;4.63;;;2.00;;
11685;SDS011;5899;51.282;6.094;2023-03-31T02:03:53;3.85;;;2.00;;
11685;SDS011;5899;51.282;6.094;2023-03-31T02:06:22;5.63;;;2.35;;
11685;SDS011;5899;51.282;6.094;2023-03-31T02:08:56;9.38;;;2.35;;
11685;SDS011;5899;51.282;6.094;2023-03-31T02:11:29;6.88;;;2.63;;
11685;SDS011;5899;51.282;6.094;2023-03-31T02:13:56;4.28;;;1.92;;
11685;SDS011;5899;51.282;6.094;2023-03-31T02:16:26;6.32;;;2.53;;
11685;SDS011;5899;51.282;6.094;2023-03-31T02:18:56;3.92;;;1.70;;
11685;SDS011;5899;51.282;6.094;2023-03-31T02:21:26;4.00;;;2.43;;
11685;SDS011;5899;51.282;6.094;2023-03-31T02:23:59;7.47;;;2.28;;
11685;SDS011;5899;51.282;6.094;2023-03-31T02:26:27;8.52;;;2.78;;
11685;SDS011;5899;51.282;6.094;2023-03-31T02:29:05;7.83;;;2.60;;
11685;SDS011;5899;51.282;6.094;2023-03-31T02:31:42;6.10;;;2.15;;
11685;SDS011;5899;51.282;6.094;2023-03-31T02:34:17;7.55;;;2.50;;
11685;SDS011;5899;51.282;6.094;2023-03-31T02:36:45;9.00;;;2.08;;
11685;SDS011;5899;51.282;6.094;2023-03-31T02:39:16;8.25;;;2.83;;
11685;SDS011;5899;51.282;6.094;2023-03-31T02:41:47;4.53;;;2.00;;
11685;SDS011;5899;51.282;6.094;2023-03-31T02:44:17;6.95;;;2.08;;
11685;SDS011;5899;51.282;6.094;2023-03-31T02:46:49;6.43;;;1.90;;
11685;SDS011;5899;51.282;6.094;2023-03-31T02:49:21;4.53;;;2.35;;
11685;SDS011;5899;51.282;6.094;2023-03-31T02:52:13;10.68;;;2.47;;
11685;SDS011;5899;51.282;6.094;2023-03-31T02:57:45;6.25;;;2.65;;
11685;SDS011;5899;51.282;6.094;2023-03-31T03:00:21;5.10;;;2.55;;
11685;SDS011;5899;51.282;6.094;2023-03-31T03:02:59;8.23;;;2.83;;
11685;SDS011;5899;51.282;6.094;2023-03-31T03:05:31;7.63;;;2.85;;
11685;SDS011;5899;51.282;6.094;2023-03-31T03:08:07;9.32;;;3.35;;
11685;SDS011;5899;51.282;6.094;2023-03-31T03:10:39;4.70;;;2.90;;
11685;SDS011;5899;51.282;6.094;2023-03-31T03:13:13;6.57;;;3.00;;
11685;SDS011;5899;51.282;6.094;2023-03-31T03:15:48;6.07;;;2.45;;
11685;SDS011;5899;51.282;6.094;2023-03-31T03:18:16;5.25;;;2.40;;
11685;SDS011;5899;51.282;6.094;2023-03-31T03:20:44;7.07;;;2.30;;
11685;SDS011;5899;51.282;6.094;2023-03-31T03:23:17;6.97;;;2.17;;
11685;SDS011;5899;51.282;6.094;2023-03-31T03:25:46;5.13;;;2.08;;
11685;SDS011;5899;51.282;6.094;2023-03-31T03:28:17;3.70;;;2.15;;
11685;SDS011;5899;51.282;6.094;2023-03-31T03:30:56;4.13;;;1.77;;
11685;SDS011;5899;51.282;6.094;2023-03-31T03:33:25;3.33;;;1.80;;
11685;SDS011;5899;51.282;6.094;2023-03-31T03:35:53;5.82;;;2.30;;
11685;SDS011;5899;51.282;6.094;2023-03-31T03:38:32;6.43;;;2.10;;
11685;SDS011;5899;51.282;6.094;2023-03-31T03:41:02;5.70;;;1.90;;
11685;SDS011;5899;51.282;6.094;2023-03-31T03:43:30;5.47;;;1.77;;
11685;SDS011;5899;51.282;6.094;2023-03-31T03:46:01;3.72;;;1.83;;
11685;SDS011;5899;51.282;6.094;2023-03-31T03:48:30;5.43;;;1.83;;
11685;SDS011;5899;51.282;6.094;2023-03-31T03:51:01;5.50;;;1.70;;
11685;SDS011;5899;51.282;6.094;2023-03-31T03:53:32;6.67;;;2.13;;
11685;SDS011;5899;51.282;6.094;2023-03-31T03:55:59;5.37;;;1.83;;
11685;SDS011;5899;51.282;6.094;2023-03-31T03:58:30;5.32;;;1.95;;
11685;SDS011;5899;51.282;6.094;2023-03-31T04:00:59;6.43;;;1.70;;
11685;SDS011;5899;51.282;6.094;2023-03-31T04:03:32;5.18;;;1.80;;
11685;SDS011;5899;51.282;6.094;2023-03-31T04:06:07;4.80;;;1.98;;
11685;SDS011;5899;51.282;6.094;2023-03-31T04:08:36;5.57;;;1.92;;
11685;SDS011;5899;51.282;6.094;2023-03-31T04:11:12;3.38;;;1.52;;
11685;SDS011;5899;51.282;6.094;2023-03-31T04:13:39;2.67;;;1.60;;
11685;SDS011;5899;51.282;6.094;2023-03-31T04:16:07;4.45;;;1.65;;
11685;SDS011;5899;51.282;6.094;2023-03-31T04:18:37;3.20;;;1.60;;
11685;SDS011;5899;51.282;6.094;2023-03-31T04:21:07;4.70;;;1.92;;
11685;SDS011;5899;51.282;6.094;2023-03-31T04:23:41;5.75;;;1.60;;
11685;SDS011;5899;51.282;6.094;2023-03-31T04:26:11;3.50;;;1.40;;
11685;SDS011;5899;51.282;6.094;2023-03-31T04:28:37;5.57;;;1.80;;
11685;SDS011;5899;51.282;6.094;2023-03-31T04:31:09;3.63;;;1.58;;
11685;SDS011;5899;51.282;6.094;2023-03-31T04:33:43;2.78;;;1.45;;
11685;SDS011;5899;51.282;6.094;2023-03-31T04:36:12;4.55;;;1.20;;
11685;SDS011;5899;51.282;6.094;2023-03-31T04:38:46;4.23;;;1.43;;
11685;SDS011;5899;51.282;6.094;2023-03-31T04:41:18;3.13;;;1.30;;
11685;SDS011;5899;51.282;6.094;2023-03-31T04:43:45;4.57;;;1.65;;
11685;SDS011;5899;51.282;6.094;2023-03-31T04:46:12;2.97;;;1.50;;
11685;SDS011;5899;51.282;6.094;2023-03-31T04:48:40;3.03;;;1.48;;
11685;SDS011;5899;51.282;6.094;2023-03-31T04:51:08;3.43;;;1.87;;
11685;SDS011;5899;51.282;6.094;2023-03-31T04:53:39;3.22;;;1.40;;
11685;SDS011;5899;51.282;6.094;2023-03-31T04:56:06;3.58;;;1.63;;
11685;SDS011;5899;51.282;6.094;2023-03-31T04:58:36;2.88;;;1.40;;
11685;SDS011;5899;51.282;6.094;2023-03-31T05:01:03;2.97;;;1.30;;
11685;SDS011;5899;51.282;6.094;2023-03-31T05:03:34;3.97;;;1.70;;
11685;SDS011;5899;51.282;6.094;2023-03-31T05:06:00;4.28;;;1.80;;
11685;SDS011;5899;51.282;6.094;2023-03-31T05:08:30;3.20;;;1.40;;
11685;SDS011;5899;51.282;6.094;2023-03-31T05:11:04;3.88;;;1.30;;
11685;SDS011;5899;51.282;6.094;2023-03-31T05:13:39;5.15;;;1.48;;
11685;SDS011;5899;51.282;6.094;2023-03-31T05:16:08;3.05;;;1.80;;
11685;SDS011;5899;51.282;6.094;2023-03-31T05:18:36;3.15;;;1.48;;
11685;SDS011;5899;51.282;6.094;2023-03-31T05:21:10;2.40;;;1.70;;
11685;SDS011;5899;51.282;6.094;2023-03-31T05:23:43;2.92;;;1.50;;
11685;SDS011;5899;51.282;6.094;2023-03-31T05:26:10;3.15;;;1.65;;
11685;SDS011;5899;51.282;6.094;2023-03-31T05:28:37;2.67;;;1.70;;
11685;SDS011;5899;51.282;6.094;2023-03-31T05:31:09;2.43;;;1.53;;
11685;SDS011;5899;51.282;6.094;2023-03-31T05:33:38;2.25;;;1.50;;
11685;SDS011;5899;51.282;6.094;2023-03-31T05:36:07;2.55;;;1.40;;
11685;SDS011;5899;51.282;6.094;2023-03-31T05:38:43;3.10;;;1.60;;
11685;SDS011;5899;51.282;6.094;2023-03-31T05:41:11;2.88;;;1.58;;
11685;SDS011;5899;51.282;6.094;2023-03-31T05:43:39;1.73;;;1.40;;
11685;SDS011;5899;51.282;6.094;2023-03-31T05:46:07;3.90;;;1.70;;
11685;SDS011;5899;51.282;6.094;2023-03-31T05:48:35;1.98;;;1.70;;
11685;SDS011;5899;51.282;6.094;2023-03-31T05:51:02;2.17;;;1.42;;
11685;SDS011;5899;51.282;6.094;2023-03-31T05:53:35;2.53;;;1.45;;
11685;SDS011;5899;51.282;6.094;2023-03-31T05:56:08;3.47;;;1.95;;
11685;SDS011;5899;51.282;6.094;2023-03-31T05:58:59;3.50;;;1.27;;
11685;SDS011;5899;51.282;6.094;2023-03-31T06:01:30;3.88;;;1.55;;
11685;SDS011;5899;51.282;6.094;2023-03-31T06:04:01;2.72;;;1.48;;
11685;SDS011;5899;51.282;6.094;2023-03-31T06:06:43;2.28;;;1.70;;
11685;SDS011;5899;51.282;6.094;2023-03-31T06:09:14;2.58;;;1.52;;
11685;SDS011;5899;51.282;6.094;2023-03-31T06:11:46;2.83;;;1.40;;
11685;SDS011;5899;51.282;6.094;2023-03-31T06:14:15;2.72;;;1.30;;
11685;SDS011;5899;51.282;6.094;2023-03-31T06:16:42;1.33;;;1.23;;
11685;SDS011;5899;51.282;6.094;2023-03-31T06:19:13;3.63;;;1.48;;
11685;SDS011;5899;51.282;6.094;2023-03-31T06:21:58;3.08;;;1.50;;
11685;SDS011;5899;51.282;6.094;2023-03-31T06:24:33;2.58;;;1.27;;
11685;SDS011;5899;51.282;6.094;2023-03-31T06:27:05;4.97;;;1.75;;
11685;SDS011;5899;51.282;6.094;2023-03-31T06:29:38;3.13;;;1.35;;
11685;SDS011;5899;51.282;6.094;2023-03-31T06:32:20;3.13;;;1.60;;
11685;SDS011;5899;51.282;6.094;2023-03-31T06:34:47;2.58;;;1.40;;
11685;SDS011;5899;51.282;6.094;2023-03-31T06:37:21;2.07;;;1.27;;
11685;SDS011;5899;51.282;6.094;2023-03-31T06:39:48;3.13;;;1.45;;
11685;SDS011;5899;51.282;6.094;2023-03-31T06:42:21;3.08;;;1.38;;
11685;SDS011;5899;51.282;6.094;2023-03-31T06:44:48;4.25;;;1.67;;
11685;SDS011;5899;51.282;6.094;2023-03-31T06:47:14;2.10;;;1.20;;
11685;SDS011;5899;51.282;6.094;2023-03-31T06:49:48;2.00;;;1.40;;
11685;SDS011;5899;51.282;6.094;2023-03-31T06:52:25;2.40;;;1.42;;
11685;SDS011;5899;51.282;6.094;2023-03-31T06:54:53;3.92;;;1.50;;
11685;SDS011;5899;51.282;6.094;2023-03-31T06:57:30;2.72;;;1.40;;
11685;SDS011;5899;51.282;6.094;2023-03-31T07:00:15;3.20;;;1.40;;
11685;SDS011;5899;51.282;6.094;2023-03-31T07:02:45;2.13;;;1.50;;
11685;SDS011;5899;51.282;6.094;2023-03-31T07:05:16;4.07;;;1.60;;
11685;SDS011;5899;51.282;6.094;2023-03-31T07:08:30;5.07;;;1.70;;
11685;SDS011;5899;51.282;6.094;2023-03-31T07:11:01;2.00;;;1.50;;
11685;SDS011;5899;51.282;6.094;2023-03-31T07:13:36;2.90;;;1.45;;
11685;SDS011;5899;51.282;6.094;2023-03-31T07:16:10;3.00;;;1.53;;
11685;SDS011;5899;51.282;6.094;2023-03-31T07:18:46;2.28;;;1.40;;
11685;SDS011;5899;51.282;6.094;2023-03-31T07:21:16;2.70;;;1.70;;
11685;SDS011;5899;51.282;6.094;2023-03-31T07:23:50;1.92;;;1.63;;
11685;SDS011;5899;51.282;6.094;2023-03-31T07:26:23;2.13;;;1.30;;
11685;SDS011;5899;51.282;6.094;2023-03-31T07:29:00;4.68;;;1.80;;
11685;SDS011;5899;51.282;6.094;2023-03-31T07:34:24;4.63;;;1.63;;
11685;SDS011;5899;51.282;6.094;2023-03-31T07:37:09;6.05;;;1.75;;
11685;SDS011;5899;51.282;6.094;2023-03-31T07:39:40;4.43;;;1.52;;
11685;SDS011;5899;51.282;6.094;2023-03-31T07:42:09;5.57;;;2.00;;
11685;SDS011;5899;51.282;6.094;2023-03-31T07:44:45;6.47;;;1.80;;
11685;SDS011;5899;51.282;6.094;2023-03-31T07:47:18;6.30;;;3.10;;
11685;SDS011;5899;51.282;6.094;2023-03-31T07:49:50;4.45;;;1.73;;
11685;SDS011;5899;51.282;6.094;2023-03-31T07:52:19;4.37;;;1.80;;
11685;SDS011;5899;51.282;6.094;2023-03-31T07:54:52;5.00;;;2.15;;
11685;SDS011;5899;51.282;6.094;2023-03-31T07:57:25;4.45;;;2.08;;
11685;SDS011;5899;51.282;6.094;2023-03-31T07:59:54;5.85;;;2.05;;
11685;SDS011;5899;51.282;6.094;2023-03-31T08:02:30;5.23;;;2.03;;
11685;SDS011;5899;51.282;6.094;2023-03-31T08:05:07;6.90;;;2.60;;
11685;SDS011;5899;51.282;6.094;2023-03-31T08:07:40;4.57;;;1.80;;
11685;SDS011;5899;51.282;6.094;2023-03-31T08:10:12;7.78;;;2.42;;
11685;SDS011;5899;51.282;6.094;2023-03-31T08:13:14;4.38;;;1.80;;
11685;SDS011;5899;51.282;6.094;2023-03-31T08:18:20;6.78;;;2.03;;
11685;SDS011;5899;51.282;6.094;2023-03-31T08:20:49;5.32;;;1.90;;
11685;SDS011;5899;51.282;6.094;2023-03-31T08:23:17;4.85;;;1.73;;
11685;SDS011;5899;51.282;6.094;2023-03-31T08:25:50;4.80;;;1.75;;
11685;SDS011;5899;51.282;6.094;2023-03-31T08:28:27;4.37;;;1.67;;
11685;SDS011;5899;51.282;6.094;2023-03-31T08:30:54;3.73;;;1.60;;
11685;SDS011;5899;51.282;6.094;2023-03-31T08:33:27;9.57;;;2.80;;
11685;SDS011;5899;51.282;6.094;2023-03-31T08:35:56;4.22;;;1.83;;
11685;SDS011;5899;51.282;6.094;2023-03-31T08:40:57;6.70;;;1.90;;
11685;SDS011;5899;51.282;6.094;2023-03-31T08:43:25;6.43;;;2.00;;
11685;SDS011;5899;51.282;6.094;2023-03-31T08:46:03;4.80;;;2.10;;
11685;SDS011;5899;51.282;6.094;2023-03-31T08:48:44;8.90;;;2.60;;
11685;SDS011;5899;51.282;6.094;2023-03-31T08:51:20;5.45;;;2.00;;
11685;SDS011;5899;51.282;6.094;2023-03-31T08:53:49;7.20;;;2.55;;
11685;SDS011;5899;51.282;6.094;2023-03-31T08:56:22;4.82;;;2.30;;
11685;SDS011;5899;51.282;6.094;2023-03-31T08:59:11;5.75;;;2.08;;
11685;SDS011;5899;51.282;6.094;2023-03-31T09:01:47;5.50;;;2.10;;
11685;SDS011;5899;51.282;6.094;2023-03-31T09:04:24;6.77;;;1.83;;
11685;SDS011;5899;51.282;6.094;2023-03-31T09:07:01;8.57;;;2.20;;
11685;SDS011;5899;51.282;6.094;2023-03-31T09:10:17;6.75;;;2.08;;
11685;SDS011;5899;51.282;6.094;2023-03-31T09:12:52;9.13;;;2.35;;
11685;SDS011;5899;51.282;6.094;2023-03-31T09:15:31;8.15;;;2.22;;
11685;SDS011;5899;51.282;6.094;2023-03-31T09:18:21;4.47;;;2.00;;
11685;SDS011;5899;51.282;6.094;2023-03-31T09:20:55;6.53;;;2.55;;
11685;SDS011;5899;51.282;6.094;2023-03-31T09:23:37;7.93;;;2.20;;
11685;SDS011;5899;51.282;6.094;2023-03-31T09:26:04;4.95;;;2.00;;
11685;SDS011;5899;51.282;6.094;2023-03-31T09:28:38;6.28;;;2.10;;
11685;SDS011;5899;51.282;6.094;2023-03-31T09:31:15;8.30;;;2.63;;
11685;SDS011;5899;51.282;6.094;2023-03-31T09:33:43;6.15;;;1.98;;
11685;SDS011;5899;51.282;6.094;2023-03-31T09:36:14;7.07;;;2.00;;
11685;SDS011;5899;51.282;6.094;2023-03-31T09:38:47;8.37;;;2.40;;
11685;SDS011;5899;51.282;6.094;2023-03-31T09:41:16;6.70;;;2.13;;
11685;SDS011;5899;51.282;6.094;2023-03-31T09:43:50;10.00;;;2.58;;
11685;SDS011;5899;51.282;6.094;2023-03-31T09:46:30;7.80;;;2.40;;
11685;SDS011;5899;51.282;6.094;2023-03-31T09:49:00;6.72;;;2.63;;
11685;SDS011;5899;51.282;6.094;2023-03-31T09:51:31;7.25;;;2.58;;
11685;SDS011;5899;51.282;6.094;2023-03-31T09:54:05;5.72;;;2.30;;
11685;SDS011;5899;51.282;6.094;2023-03-31T09:56:43;5.57;;;2.13;;
11685;SDS011;5899;51.282;6.094;2023-03-31T09:59:12;9.52;;;2.70;;
11685;SDS011;5899;51.282;6.094;2023-03-31T10:01:42;8.45;;;2.00;;
11685;SDS011;5899;51.282;6.094;2023-03-31T10:04:12;10.60;;;2.25;;
11685;SDS011;5899;51.282;6.094;2023-03-31T10:06:58;7.45;;;2.30;;
11685;SDS011;5899;51.282;6.094;2023-03-31T10:09:28;7.47;;;2.28;;
11685;SDS011;5899;51.282;6.094;2023-03-31T10:12:08;7.85;;;2.25;;
11685;SDS011;5899;51.282;6.094;2023-03-31T10:17:45;7.53;;;2.60;;
11685;SDS011;5899;51.282;6.094;2023-03-31T10:23:13;4.00;;;1.75;;
11685;SDS011;5899;51.282;6.094;2023-03-31T10:25:40;4.85;;;1.98;;
11685;SDS011;5899;51.282;6.094;2023-03-31T10:28:09;4.68;;;2.22;;
11685;SDS011;5899;51.282;6.094;2023-03-31T10:30:39;6.83;;;1.90;;
11685;SDS011;5899;51.282;6.094;2023-03-31T10:33:06;4.35;;;1.52;;
11685;SDS011;5899;51.282;6.094;2023-03-31T10:35:48;4.65;;;1.70;;
11685;SDS011;5899;51.282;6.094;2023-03-31T10:41:26;4.07;;;1.58;;
11685;SDS011;5899;51.282;6.094;2023-03-31T10:46:46;4.35;;;1.73;;
11685;SDS011;5899;51.282;6.094;2023-03-31T10:49:23;6.43;;;1.80;;
11685;SDS011;5899;51.282;6.094;2023-03-31T10:51:56;3.58;;;1.45;;
11685;SDS011;5899;51.282;6.094;2023-03-31T10:54:46;3.35;;;1.35;;
11685;SDS011;5899;51.282;6.094;2023-03-31T10:57:16;4.03;;;1.60;;
11685;SDS011;5899;51.282;6.094;2023-03-31T10:59:51;5.43;;;1.50;;
11685;SDS011;5899;51.282;6.094;2023-03-31T11:05:16;4.45;;;1.70;;
11685;SDS011;5899;51.282;6.094;2023-03-31T11:07:51;4.47;;;1.60;;
11685;SDS011;5899;51.282;6.094;2023-03-31T11:10:28;5.30;;;1.98;;
11685;SDS011;5899;51.282;6.094;2023-03-31T11:13:04;4.90;;;1.88;;
11685;SDS011;5899;51.282;6.094;2023-03-31T11:15:38;5.07;;;1.95;;
11685;SDS011;5899;51.282;6.094;2023-03-31T11:18:17;4.10;;;1.73;;
11685;SDS011;5899;51.282;6.094;2023-03-31T11:20:49;6.90;;;1.80;;
11685;SDS011;5899;51.282;6.094;2023-03-31T11:23:20;4.32;;;1.65;;
11685;SDS011;5899;51.282;6.094;2023-03-31T11:25:57;5.13;;;1.85;;
11685;SDS011;5899;51.282;6.094;2023-03-31T11:31:27;7.40;;;2.03;;
11685;SDS011;5899;51.282;6.094;2023-03-31T11:34:17;7.25;;;1.95;;
11685;SDS011;5899;51.282;6.094;2023-03-31T11:36:55;7.60;;;1.70;;
11685;SDS011;5899;51.282;6.094;2023-03-31T11:39:37;7.18;;;1.85;;
11685;SDS011;5899;51.282;6.094;2023-03-31T11:42:12;6.70;;;1.90;;
11685;SDS011;5899;51.282;6.094;2023-03-31T11:44:43;6.63;;;2.00;;
11685;SDS011;5899;51.282;6.094;2023-03-31T11:50:15;3.45;;;1.95;;
11685;SDS011;5899;51.282;6.094;2023-03-31T11:52:55;6.65;;;2.22;;
11685;SDS011;5899;51.282;6.094;2023-03-31T11:55:24;5.47;;;1.90;;
11685;SDS011;5899;51.282;6.094;2023-03-31T11:58:00;5.10;;;1.93;;
11685;SDS011;5899;51.282;6.094;2023-03-31T12:03:32;6.60;;;1.63;;
11685;SDS011;5899;51.282;6.094;2023-03-31T12:06:10;7.13;;;1.95;;
11685;SDS011;5899;51.282;6.094;2023-03-31T12:08:44;5.70;;;1.80;;
11685;SDS011;5899;51.282;6.094;2023-03-31T12:14:13;5.57;;;1.80;;
11685;SDS011;5899;51.282;6.094;2023-03-31T12:16:50;7.47;;;2.00;;
11685;SDS011;5899;51.282;6.094;2023-03-31T12:19:20;6.40;;;2.07;;
11685;SDS011;5899;51.282;6.094;2023-03-31T12:21:49;6.35;;;1.95;;
11685;SDS011;5899;51.282;6.094;2023-03-31T12:24:17;4.20;;;1.60;;
11685;SDS011;5899;51.282;6.094;2023-03-31T12:26:49;5.28;;;1.67;;
11685;SDS011;5899;51.282;6.094;2023-03-31T12:29:28;5.63;;;2.03;;
11685;SDS011;5899;51.282;6.094;2023-03-31T12:32:02;5.72;;;1.70;;
11685;SDS011;5899;51.282;6.094;2023-03-31T12:34:30;6.72;;;1.88;;
11685;SDS011;5899;51.282;6.094;2023-03-31T12:37:05;4.50;;;1.40;;
11685;SDS011;5899;51.282;6.094;2023-03-31T12:43:06;5.75;;;1.75;;
11685;SDS011;5899;51.282;6.094;2023-03-31T12:45:40;4.97;;;1.73;;
11685;SDS011;5899;51.282;6.094;2023-03-31T12:48:23;5.93;;;1.80;;
11685;SDS011;5899;51.282;6.094;2023-03-31T12:51:02;4.20;;;1.50;;
11685;SDS011;5899;51.282;6.094;2023-03-31T12:53:41;5.47;;;1.70;;
11685;SDS011;5899;51.282;6.094;2023-03-31T12:56:12;2.80;;;1.30;;
11685;SDS011;5899;51.282;6.094;2023-03-31T12:58:49;6.07;;;1.95;;
11685;SDS011;5899;51.282;6.094;2023-03-31T13:01:23;3.90;;;1.52;;
11685;SDS011;5899;51.282;6.094;2023-03-31T13:03:53;3.42;;;1.50;;
11685;SDS011;5899;51.282;6.094;2023-03-31T13:09:45;5.27;;;1.43;;
11685;SDS011;5899;51.282;6.094;2023-03-31T13:12:18;4.72;;;1.88;;
11685;SDS011;5899;51.282;6.094;2023-03-31T13:14:51;3.45;;;1.40;;
11685;SDS011;5899;51.282;6.094;2023-03-31T13:17:25;4.25;;;1.85;;
11685;SDS011;5899;51.282;6.094;2023-03-31T13:19:53;5.88;;;1.80;;
11685;SDS011;5899;51.282;6.094;2023-03-31T13:22:27;5.10;;;1.70;;
11685;SDS011;5899;51.282;6.094;2023-03-31T13:27:48;3.28;;;1.30;;
11685;SDS011;5899;51.282;6.094;2023-03-31T13:33:05;4.10;;;1.73;;
11685;SDS011;5899;51.282;6.094;2023-03-31T13:35:36;5.78;;;1.65;;
11685;SDS011;5899;51.282;6.094;2023-03-31T13:38:06;3.70;;;1.70;;
11685;SDS011;5899;51.282;6.094;2023-03-31T13:43:42;3.83;;;1.52;;
11685;SDS011;5899;51.282;6.094;2023-03-31T13:49:02;5.63;;;1.85;;
11685;SDS011;5899;51.282;6.094;2023-03-31T13:51:42;3.75;;;1.65;;
11685;SDS011;5899;51.282;6.094;2023-03-31T13:57:12;7.00;;;1.67;;
11685;SDS011;5899;51.282;6.094;2023-03-31T13:59:57;3.70;;;1.52;;
11685;SDS011;5899;51.282;6.094;2023-03-31T14:02:38;4.85;;;1.50;;
11685;SDS011;5899;51.282;6.094;2023-03-31T14:10:49;7.00;;;1.50;;
11685;SDS011;5899;51.282;6.094;2023-03-31T14:13:17;4.60;;;1.70;;
11685;SDS011;5899;51.282;6.094;2023-03-31T14:15:47;3.83;;;1.67;;
11685;SDS011;5899;51.282;6.094;2023-03-31T14:18:22;2.65;;;1.50;;
11685;SDS011;5899;51.282;6.094;2023-03-31T14:23:53;7.43;;;1.90;;
11685;SDS011;5899;51.282;6.094;2023-03-31T14:26:28;4.82;;;1.90;;
11685;SDS011;5899;51.282;6.094;2023-03-31T14:29:08;5.50;;;1.98;;
11685;SDS011;5899;51.282;6.094;2023-03-31T14:31:55;8.02;;;1.77;;
11685;SDS011;5899;51.282;6.094;2023-03-31T14:34:33;2.28;;;1.13;;
11685;SDS011;5899;51.282;6.094;2023-03-31T14:37:05;5.67;;;1.97;;
11685;SDS011;5899;51.282;6.094;2023-03-31T14:39:47;3.80;;;1.30;;
11685;SDS011;5899;51.282;6.094;2023-03-31T14:42:26;2.40;;;1.50;;
11685;SDS011;5899;51.282;6.094;2023-03-31T14:44:54;3.42;;;1.60;;
11685;SDS011;5899;51.282;6.094;2023-03-31T14:47:25;3.10;;;1.45;;
11685;SDS011;5899;51.282;6.094;2023-03-31T14:50:01;4.47;;;1.50;;
11685;SDS011;5899;51.282;6.094;2023-03-31T14:52:45;4.50;;;1.60;;
11685;SDS011;5899;51.282;6.094;2023-03-31T14:55:16;3.85;;;1.20;;
11685;SDS011;5899;51.282;6.094;2023-03-31T14:57:45;3.67;;;1.70;;
11685;SDS011;5899;51.282;6.094;2023-03-31T15:00:13;2.38;;;1.30;;
11685;SDS011;5899;51.282;6.094;2023-03-31T15:02:52;2.70;;;1.70;;
11685;SDS011;5899;51.282;6.094;2023-03-31T15:05:24;3.30;;;1.30;;
11685;SDS011;5899;51.282;6.094;2023-03-31T15:07:56;3.83;;;2.38;;
11685;SDS011;5899;51.282;6.094;2023-03-31T15:10:40;9.43;;;4.68;;
11685;SDS011;5899;51.282;6.094;2023-03-31T15:13:19;4.23;;;1.80;;
11685;SDS011;5899;51.282;6.094;2023-03-31T15:15:49;5.03;;;2.28;;
11685;SDS011;5899;51.282;6.094;2023-03-31T15:18:24;7.40;;;3.85;;
11685;SDS011;5899;51.282;6.094;2023-03-31T15:20:51;12.90;;;5.93;;
11685;SDS011;5899;51.282;6.094;2023-03-31T15:23:23;15.63;;;7.30;;
11685;SDS011;5899;51.282;6.094;2023-03-31T15:25:53;7.78;;;3.85;;
11685;SDS011;5899;51.282;6.094;2023-03-31T15:28:28;6.75;;;3.60;;
11685;SDS011;5899;51.282;6.094;2023-03-31T15:31:00;4.78;;;2.60;;
11685;SDS011;5899;51.282;6.094;2023-03-31T15:33:35;5.60;;;1.65;;
11685;SDS011;5899;51.282;6.094;2023-03-31T15:36:09;2.37;;;1.70;;
11685;SDS011;5899;51.282;6.094;2023-03-31T15:38:43;3.10;;;1.50;;
11685;SDS011;5899;51.282;6.094;2023-03-31T15:44:05;3.17;;;1.30;;
11685;SDS011;5899;51.282;6.094;2023-03-31T15:49:20;2.63;;;1.30;;
11685;SDS011;5899;51.282;6.094;2023-03-31T15:51:57;3.10;;;1.30;;
11685;SDS011;5899;51.282;6.094;2023-03-31T15:54:32;2.97;;;1.45;;
11685;SDS011;5899;51.282;6.094;2023-03-31T15:57:09;2.50;;;1.30;;
11685;SDS011;5899;51.282;6.094;2023-03-31T15:59:44;2.97;;;1.20;;
11685;SDS011;5899;51.282;6.094;2023-03-31T16:02:13;1.15;;;0.90;;
11685;SDS011;5899;51.282;6.094;2023-03-31T16:04:45;1.10;;;1.00;;
11685;SDS011;5899;51.282;6.094;2023-03-31T16:07:16;1.60;;;1.23;;
11685;SDS011;5899;51.282;6.094;2023-03-31T16:09:51;1.13;;;1.02;;
11685;SDS011;5899;51.282;6.094;2023-03-31T16:12:30;1.90;;;1.20;;
11685;SDS011;5899;51.282;6.094;2023-03-31T16:14:59;2.35;;;1.55;;
11685;SDS011;5899;51.282;6.094;2023-03-31T16:17:31;1.53;;;1.20;;
11685;SDS011;5899;51.282;6.094;2023-03-31T16:20:15;2.65;;;1.95;;
11685;SDS011;5899;51.282;6.094;2023-03-31T16:22:48;3.20;;;2.70;;
11685;SDS011;5899;51.282;6.094;2023-03-31T16:25:23;2.17;;;1.98;;
11685;SDS011;5899;51.282;6.094;2023-03-31T16:27:57;4.35;;;3.17;;
11685;SDS011;5899;51.282;6.094;2023-03-31T16:30:34;6.97;;;4.78;;
11685;SDS011;5899;51.282;6.094;2023-03-31T16:33:14;4.22;;;1.92;;
11685;SDS011;5899;51.282;6.094;2023-03-31T16:35:49;1.50;;;1.40;;
11685;SDS011;5899;51.282;6.094;2023-03-31T16:38:18;2.85;;;2.20;;
11685;SDS011;5899;51.282;6.094;2023-03-31T16:40:49;3.42;;;1.63;;
11685;SDS011;5899;51.282;6.094;2023-03-31T16:43:21;2.60;;;1.50;;
11685;SDS011;5899;51.282;6.094;2023-03-31T16:45:58;3.90;;;1.50;;
11685;SDS011;5899;51.282;6.094;2023-03-31T16:48:28;1.52;;;1.10;;
11685;SDS011;5899;51.282;6.094;2023-03-31T16:51:03;1.63;;;1.00;;
11685;SDS011;5899;51.282;6.094;2023-03-31T16:53:35;2.40;;;1.20;;
11685;SDS011;5899;51.282;6.094;2023-03-31T16:56:09;3.83;;;1.55;;
11685;SDS011;5899;51.282;6.094;2023-03-31T16:58:46;2.65;;;1.40;;